sensor_id;sensor_type;location;lat;lon;timestamp;temperature;humidity
21698;DHT22;11010;49.548;11.926;2022-07-25T00:01:02;23.40;99.90
21698;DHT22;11010;49.548;11.926;2022-07-25T00:03:32;23.30;99.90
21698;DHT22;11010;49.548;11.926;2022-07-25T00:06:00;23.40;99.90
21698;DHT22;11010;49.548;11.926;2022-07-25T00:08:28;23.30;99.90
21698;DHT22;11010;49.548;11.926;2022-07-25T00:10:55;23.30;99.90
21698;DHT22;11010;49.548;11.926;2022-07-25T00:13:23;23.10;99.90
21698;DHT22;11010;49.548;11.926;2022-07-25T00:15:51;23.20;99.90
21698;DHT22;11010;49.548;11.926;2022-07-25T00:18:19;23.20;99.90
21698;DHT22;11010;49.548;11.926;2022-07-25T00:20:46;23.10;99.90
21698;DHT22;11010;49.548;11.926;2022-07-25T00:23:14;23.10;99.90
21698;DHT22;11010;49.548;11.926;2022-07-25T00:25:42;23.10;99.90
21698;DHT22;11010;49.548;11.926;2022-07-25T00:28:09;23.10;99.90
21698;DHT22;11010;49.548;11.926;2022-07-25T00:30:37;23.20;99.90
21698;DHT22;11010;49.548;11.926;2022-07-25T00:33:05;23.10;99.90
21698;DHT22;11010;49.548;11.926;2022-07-25T00:35:33;23.10;99.90
21698;DHT22;11010;49.548;11.926;2022-07-25T00:38:00;23.00;99.90
21698;DHT22;11010;49.548;11.926;2022-07-25T00:40:28;23.00;99.90
21698;DHT22;11010;49.548;11.926;2022-07-25T00:42:56;23.00;99.90
21698;DHT22;11010;49.548;11.926;2022-07-25T00:45:24;22.90;99.90
21698;DHT22;11010;49.548;11.926;2022-07-25T00:47:51;22.90;99.90
21698;DHT22;11010;49.548;11.926;2022-07-25T00:50:19;22.80;99.90
21698;DHT22;11010;49.548;11.926;2022-07-25T00:52:47;22.80;99.90
21698;DHT22;11010;49.548;11.926;2022-07-25T00:55:15;22.90;99.90
21698;DHT22;11010;49.548;11.926;2022-07-25T00:57:43;23.10;99.90
21698;DHT22;11010;49.548;11.926;2022-07-25T01:00:13;22.90;99.90
21698;DHT22;11010;49.548;11.926;2022-07-25T01:02:41;22.70;99.90
21698;DHT22;11010;49.548;11.926;2022-07-25T01:05:09;22.60;99.90
21698;DHT22;11010;49.548;11.926;2022-07-25T01:07:38;22.60;99.90
21698;DHT22;11010;49.548;11.926;2022-07-25T01:10:07;22.70;99.90
21698;DHT22;11010;49.548;11.926;2022-07-25T01:12:50;22.60;99.90
21698;DHT22;11010;49.548;11.926;2022-07-25T01:15:21;22.60;99.90
21698;DHT22;11010;49.548;11.926;2022-07-25T01:17:50;22.50;99.90
21698;DHT22;11010;49.548;11.926;2022-07-25T01:20:22;22.50;99.90
21698;DHT22;11010;49.548;11.926;2022-07-25T01:22:51;22.30;99.90
21698;DHT22;11010;49.548;11.926;2022-07-25T01:25:20;22.30;99.90
21698;DHT22;11010;49.548;11.926;2022-07-25T01:27:49;22.10;99.90
21698;DHT22;11010;49.548;11.926;2022-07-25T01:30:23;22.10;99.90
21698;DHT22;11010;49.548;11.926;2022-07-25T01:32:51;22.30;99.90
21698;DHT22;11010;49.548;11.926;2022-07-25T01:35:19;22.30;99.90
21698;DHT22;11010;49.548;11.926;2022-07-25T01:37:46;22.00;99.90
21698;DHT22;11010;49.548;11.926;2022-07-25T01:40:14;21.60;99.90
21698;DHT22;11010;49.548;11.926;2022-07-25T01:42:42;22.10;99.90
21698;DHT22;11010;49.548;11.926;2022-07-25T01:45:11;22.30;99.90
21698;DHT22;11010;49.548;11.926;2022-07-25T01:47:38;22.40;99.90
21698;DHT22;11010;49.548;11.926;2022-07-25T01:50:06;22.30;99.90
21698;DHT22;11010;49.548;11.926;2022-07-25T01:52:35;22.30;99.90
21698;DHT22;11010;49.548;11.926;2022-07-25T01:55:03;22.10;99.90
21698;DHT22;11010;49.548;11.926;2022-07-25T01:57:32;22.10;99.90
21698;DHT22;11010;49.548;11.926;2022-07-25T02:00:04;22.00;99.90
21698;DHT22;11010;49.548;11.926;2022-07-25T02:02:37;22.10;99.90
21698;DHT22;11010;49.548;11.926;2022-07-25T02:05:05;22.20;99.90
21698;DHT22;11010;49.548;11.926;2022-07-25T02:07:33;22.00;99.90
21698;DHT22;11010;49.548;11.926;2022-07-25T02:10:01;21.90;99.90
21698;DHT22;11010;49.548;11.926;2022-07-25T02:12:28;21.80;99.90
21698;DHT22;11010;49.548;11.926;2022-07-25T02:14:55;21.80;99.90
21698;DHT22;11010;49.548;11.926;2022-07-25T02:17:22;21.70;99.90
21698;DHT22;11010;49.548;11.926;2022-07-25T02:19:50;21.80;99.90
21698;DHT22;11010;49.548;11.926;2022-07-25T02:22:17;21.80;99.90
21698;DHT22;11010;49.548;11.926;2022-07-25T02:24:44;21.70;99.90
21698;DHT22;11010;49.548;11.926;2022-07-25T02:27:11;21.70;99.90
21698;DHT22;11010;49.548;11.926;2022-07-25T02:29:39;21.60;99.90
21698;DHT22;11010;49.548;11.926;2022-07-25T02:32:06;21.70;99.90
21698;DHT22;11010;49.548;11.926;2022-07-25T02:34:33;21.60;99.90
21698;DHT22;11010;49.548;11.926;2022-07-25T02:37:00;21.40;99.90
21698;DHT22;11010;49.548;11.926;2022-07-25T02:39:27;21.40;99.90
21698;DHT22;11010;49.548;11.926;2022-07-25T02:41:54;21.50;99.90
21698;DHT22;11010;49.548;11.926;2022-07-25T02:44:21;21.10;99.90
21698;DHT22;11010;49.548;11.926;2022-07-25T02:46:48;21.10;99.90
21698;DHT22;11010;49.548;11.926;2022-07-25T02:49:15;21.40;99.90
21698;DHT22;11010;49.548;11.926;2022-07-25T02:51:43;21.40;99.90
21698;DHT22;11010;49.548;11.926;2022-07-25T02:54:10;21.40;99.90
21698;DHT22;11010;49.548;11.926;2022-07-25T02:56:38;20.80;99.90
21698;DHT22;11010;49.548;11.926;2022-07-25T02:59:05;20.20;99.90
21698;DHT22;11010;49.548;11.926;2022-07-25T03:01:32;20.80;99.90
21698;DHT22;11010;49.548;11.926;2022-07-25T03:03:59;21.20;99.90
21698;DHT22;11010;49.548;11.926;2022-07-25T03:06:27;21.30;99.90
21698;DHT22;11010;49.548;11.926;2022-07-25T03:08:54;21.30;99.90
21698;DHT22;11010;49.548;11.926;2022-07-25T03:11:21;21.30;99.90
21698;DHT22;11010;49.548;11.926;2022-07-25T03:13:48;21.30;99.90
21698;DHT22;11010;49.548;11.926;2022-07-25T03:16:15;21.40;99.90
21698;DHT22;11010;49.548;11.926;2022-07-25T03:18:42;21.20;99.90
21698;DHT22;11010;49.548;11.926;2022-07-25T03:21:10;21.00;99.90
21698;DHT22;11010;49.548;11.926;2022-07-25T03:23:37;21.10;99.90
21698;DHT22;11010;49.548;11.926;2022-07-25T03:26:04;21.00;99.90
21698;DHT22;11010;49.548;11.926;2022-07-25T03:28:31;21.00;99.90
21698;DHT22;11010;49.548;11.926;2022-07-25T03:30:59;21.00;99.90
21698;DHT22;11010;49.548;11.926;2022-07-25T03:33:26;21.00;99.90
21698;DHT22;11010;49.548;11.926;2022-07-25T03:35:53;21.10;99.90
21698;DHT22;11010;49.548;11.926;2022-07-25T03:38:22;21.00;99.90
21698;DHT22;11010;49.548;11.926;2022-07-25T03:40:50;21.00;99.90
21698;DHT22;11010;49.548;11.926;2022-07-25T03:43:17;20.90;99.90
21698;DHT22;11010;49.548;11.926;2022-07-25T03:45:44;21.00;99.90
21698;DHT22;11010;49.548;11.926;2022-07-25T03:48:12;20.90;99.90
21698;DHT22;11010;49.548;11.926;2022-07-25T03:50:39;20.80;99.90
21698;DHT22;11010;49.548;11.926;2022-07-25T03:53:06;20.80;99.90
21698;DHT22;11010;49.548;11.926;2022-07-25T03:55:36;20.80;99.90
21698;DHT22;11010;49.548;11.926;2022-07-25T03:58:05;20.90;99.90
21698;DHT22;11010;49.548;11.926;2022-07-25T04:00:32;20.90;99.90
21698;DHT22;11010;49.548;11.926;2022-07-25T04:03:00;20.30;99.90
21698;DHT22;11010;49.548;11.926;2022-07-25T04:05:27;20.70;99.90
21698;DHT22;11010;49.548;11.926;2022-07-25T04:07:56;20.80;99.90
21698;DHT22;11010;49.548;11.926;2022-07-25T04:10:23;20.80;99.90
21698;DHT22;11010;49.548;11.926;2022-07-25T04:12:50;20.80;99.90
21698;DHT22;11010;49.548;11.926;2022-07-25T04:15:17;20.80;99.90
21698;DHT22;11010;49.548;11.926;2022-07-25T04:17:44;20.60;99.90
21698;DHT22;11010;49.548;11.926;2022-07-25T04:20:12;20.60;99.90
21698;DHT22;11010;49.548;11.926;2022-07-25T04:22:39;20.70;99.90
21698;DHT22;11010;49.548;11.926;2022-07-25T04:25:12;20.70;99.90
21698;DHT22;11010;49.548;11.926;2022-07-25T04:27:39;20.70;99.90
21698;DHT22;11010;49.548;11.926;2022-07-25T04:30:07;20.80;99.90
21698;DHT22;11010;49.548;11.926;2022-07-25T04:32:34;20.70;99.90
21698;DHT22;11010;49.548;11.926;2022-07-25T04:35:02;20.80;99.90
21698;DHT22;11010;49.548;11.926;2022-07-25T04:37:29;20.90;99.90
21698;DHT22;11010;49.548;11.926;2022-07-25T04:39:56;20.80;99.90
21698;DHT22;11010;49.548;11.926;2022-07-25T04:42:23;20.80;99.90
21698;DHT22;11010;49.548;11.926;2022-07-25T04:44:50;20.80;99.90
21698;DHT22;11010;49.548;11.926;2022-07-25T04:47:18;20.80;99.90
21698;DHT22;11010;49.548;11.926;2022-07-25T04:49:45;20.80;99.90
21698;DHT22;11010;49.548;11.926;2022-07-25T04:52:12;20.90;99.90
21698;DHT22;11010;49.548;11.926;2022-07-25T04:54:39;20.90;99.90
21698;DHT22;11010;49.548;11.926;2022-07-25T04:57:06;20.70;99.90
21698;DHT22;11010;49.548;11.926;2022-07-25T04:59:33;20.60;99.90
21698;DHT22;11010;49.548;11.926;2022-07-25T05:02:01;20.80;99.90
21698;DHT22;11010;49.548;11.926;2022-07-25T05:04:28;20.90;99.90
21698;DHT22;11010;49.548;11.926;2022-07-25T05:06:57;20.90;99.90
21698;DHT22;11010;49.548;11.926;2022-07-25T05:09:25;21.00;99.90
21698;DHT22;11010;49.548;11.926;2022-07-25T05:11:53;21.10;99.90
21698;DHT22;11010;49.548;11.926;2022-07-25T05:14:22;21.10;99.90
21698;DHT22;11010;49.548;11.926;2022-07-25T05:16:49;21.10;99.90
21698;DHT22;11010;49.548;11.926;2022-07-25T05:19:16;21.10;99.90
21698;DHT22;11010;49.548;11.926;2022-07-25T05:21:44;21.20;99.90
21698;DHT22;11010;49.548;11.926;2022-07-25T05:24:11;21.10;99.90
21698;DHT22;11010;49.548;11.926;2022-07-25T05:26:38;20.80;99.90
21698;DHT22;11010;49.548;11.926;2022-07-25T05:29:05;20.60;99.90
21698;DHT22;11010;49.548;11.926;2022-07-25T05:31:32;20.70;99.90
21698;DHT22;11010;49.548;11.926;2022-07-25T05:34:00;21.10;99.90
21698;DHT22;11010;49.548;11.926;2022-07-25T05:36:27;21.30;99.90
21698;DHT22;11010;49.548;11.926;2022-07-25T05:38:54;21.40;99.90
21698;DHT22;11010;49.548;11.926;2022-07-25T05:41:21;21.50;99.90
21698;DHT22;11010;49.548;11.926;2022-07-25T05:43:49;21.60;99.90
21698;DHT22;11010;49.548;11.926;2022-07-25T05:46:16;21.70;99.90
21698;DHT22;11010;49.548;11.926;2022-07-25T05:48:43;21.60;99.90
21698;DHT22;11010;49.548;11.926;2022-07-25T05:51:12;21.70;99.90
21698;DHT22;11010;49.548;11.926;2022-07-25T05:53:39;21.90;99.90
21698;DHT22;11010;49.548;11.926;2022-07-25T05:56:06;21.80;99.90
21698;DHT22;11010;49.548;11.926;2022-07-25T05:58:34;21.80;99.90
21698;DHT22;11010;49.548;11.926;2022-07-25T06:01:03;21.90;99.90
21698;DHT22;11010;49.548;11.926;2022-07-25T06:03:30;22.00;99.90
21698;DHT22;11010;49.548;11.926;2022-07-25T06:05:57;22.10;99.90
21698;DHT22;11010;49.548;11.926;2022-07-25T06:08:24;22.10;99.90
21698;DHT22;11010;49.548;11.926;2022-07-25T06:10:57;22.20;99.90
21698;DHT22;11010;49.548;11.926;2022-07-25T06:13:26;22.10;99.90
21698;DHT22;11010;49.548;11.926;2022-07-25T06:15:54;22.00;99.90
21698;DHT22;11010;49.548;11.926;2022-07-25T06:18:22;22.20;99.90
21698;DHT22;11010;49.548;11.926;2022-07-25T06:20:49;22.30;99.90
21698;DHT22;11010;49.548;11.926;2022-07-25T06:23:16;22.30;99.90
21698;DHT22;11010;49.548;11.926;2022-07-25T06:25:44;22.40;99.90
21698;DHT22;11010;49.548;11.926;2022-07-25T06:28:16;22.50;99.90
21698;DHT22;11010;49.548;11.926;2022-07-25T06:30:44;22.40;99.90
21698;DHT22;11010;49.548;11.926;2022-07-25T06:33:12;22.70;99.90
21698;DHT22;11010;49.548;11.926;2022-07-25T06:35:39;22.80;99.90
21698;DHT22;11010;49.548;11.926;2022-07-25T06:38:06;23.00;99.90
21698;DHT22;11010;49.548;11.926;2022-07-25T06:40:33;23.00;99.90
21698;DHT22;11010;49.548;11.926;2022-07-25T06:43:01;23.20;99.90
21698;DHT22;11010;49.548;11.926;2022-07-25T06:45:28;23.20;99.90
21698;DHT22;11010;49.548;11.926;2022-07-25T06:47:55;23.30;99.90
21698;DHT22;11010;49.548;11.926;2022-07-25T06:50:22;23.30;99.90
21698;DHT22;11010;49.548;11.926;2022-07-25T06:52:49;23.50;99.90
21698;DHT22;11010;49.548;11.926;2022-07-25T06:55:17;23.40;99.90
21698;DHT22;11010;49.548;11.926;2022-07-25T06:57:44;23.50;99.90
21698;DHT22;11010;49.548;11.926;2022-07-25T07:00:13;23.80;99.90
21698;DHT22;11010;49.548;11.926;2022-07-25T07:02:47;23.70;99.90
21698;DHT22;11010;49.548;11.926;2022-07-25T07:05:15;23.80;99.90
21698;DHT22;11010;49.548;11.926;2022-07-25T07:07:42;23.90;99.90
21698;DHT22;11010;49.548;11.926;2022-07-25T07:10:14;23.90;99.90
21698;DHT22;11010;49.548;11.926;2022-07-25T07:12:42;23.90;99.90
21698;DHT22;11010;49.548;11.926;2022-07-25T07:15:10;23.90;99.90
21698;DHT22;11010;49.548;11.926;2022-07-25T07:17:38;24.00;99.90
21698;DHT22;11010;49.548;11.926;2022-07-25T07:20:06;24.00;99.90
21698;DHT22;11010;49.548;11.926;2022-07-25T07:22:48;24.10;99.90
21698;DHT22;11010;49.548;11.926;2022-07-25T07:25:17;24.50;99.90
21698;DHT22;11010;49.548;11.926;2022-07-25T07:27:46;24.50;99.90
21698;DHT22;11010;49.548;11.926;2022-07-25T07:30:13;24.60;99.90
21698;DHT22;11010;49.548;11.926;2022-07-25T07:32:41;24.70;99.90
21698;DHT22;11010;49.548;11.926;2022-07-25T07:35:09;24.70;99.90
21698;DHT22;11010;49.548;11.926;2022-07-25T07:37:38;24.80;99.90
21698;DHT22;11010;49.548;11.926;2022-07-25T07:40:11;24.90;99.90
21698;DHT22;11010;49.548;11.926;2022-07-25T07:42:46;25.00;99.90
21698;DHT22;11010;49.548;11.926;2022-07-25T07:45:16;25.10;99.90
21698;DHT22;11010;49.548;11.926;2022-07-25T07:47:45;25.10;99.90
21698;DHT22;11010;49.548;11.926;2022-07-25T07:50:19;25.30;99.90
21698;DHT22;11010;49.548;11.926;2022-07-25T07:52:48;25.20;99.90
21698;DHT22;11010;49.548;11.926;2022-07-25T07:55:16;25.30;99.90
21698;DHT22;11010;49.548;11.926;2022-07-25T07:58:02;25.50;99.90
21698;DHT22;11010;49.548;11.926;2022-07-25T08:00:29;25.70;99.90
21698;DHT22;11010;49.548;11.926;2022-07-25T08:02:58;25.70;99.90
21698;DHT22;11010;49.548;11.926;2022-07-25T08:05:31;25.70;99.90
21698;DHT22;11010;49.548;11.926;2022-07-25T08:07:59;25.70;99.90
21698;DHT22;11010;49.548;11.926;2022-07-25T08:10:29;25.90;99.90
21698;DHT22;11010;49.548;11.926;2022-07-25T08:12:58;26.00;99.90
21698;DHT22;11010;49.548;11.926;2022-07-25T08:15:25;26.40;99.90
21698;DHT22;11010;49.548;11.926;2022-07-25T08:17:53;26.40;99.90
21698;DHT22;11010;49.548;11.926;2022-07-25T08:20:21;26.50;99.90
21698;DHT22;11010;49.548;11.926;2022-07-25T08:23:05;26.50;99.90
21698;DHT22;11010;49.548;11.926;2022-07-25T08:25:33;26.80;99.90
21698;DHT22;11010;49.548;11.926;2022-07-25T08:28:01;27.00;99.90
21698;DHT22;11010;49.548;11.926;2022-07-25T08:30:29;26.90;99.90
21698;DHT22;11010;49.548;11.926;2022-07-25T08:32:58;26.80;99.90
21698;DHT22;11010;49.548;11.926;2022-07-25T08:35:27;26.90;99.90
21698;DHT22;11010;49.548;11.926;2022-07-25T08:37:55;27.10;99.90
21698;DHT22;11010;49.548;11.926;2022-07-25T08:40:24;27.40;99.90
21698;DHT22;11010;49.548;11.926;2022-07-25T08:42:52;27.40;99.90
21698;DHT22;11010;49.548;11.926;2022-07-25T08:45:25;27.60;99.90
21698;DHT22;11010;49.548;11.926;2022-07-25T08:47:54;27.80;99.90
21698;DHT22;11010;49.548;11.926;2022-07-25T08:50:25;27.80;99.90
21698;DHT22;11010;49.548;11.926;2022-07-25T08:52:53;27.90;99.90
21698;DHT22;11010;49.548;11.926;2022-07-25T08:55:41;28.00;99.90
21698;DHT22;11010;49.548;11.926;2022-07-25T08:58:12;28.20;99.90
21698;DHT22;11010;49.548;11.926;2022-07-25T09:00:41;28.10;99.90
21698;DHT22;11010;49.548;11.926;2022-07-25T09:03:08;28.10;99.90
21698;DHT22;11010;49.548;11.926;2022-07-25T09:05:37;28.50;99.90
21698;DHT22;11010;49.548;11.926;2022-07-25T09:08:15;28.70;99.90
21698;DHT22;11010;49.548;11.926;2022-07-25T09:10:51;28.70;99.90
21698;DHT22;11010;49.548;11.926;2022-07-25T09:13:20;29.10;99.90
21698;DHT22;11010;49.548;11.926;2022-07-25T09:15:53;29.00;99.90
21698;DHT22;11010;49.548;11.926;2022-07-25T09:18:24;28.70;99.80
21698;DHT22;11010;49.548;11.926;2022-07-25T09:20:59;28.80;99.40
21698;DHT22;11010;49.548;11.926;2022-07-25T09:23:35;28.70;99.60
21698;DHT22;11010;49.548;11.926;2022-07-25T09:26:06;28.80;99.90
21698;DHT22;11010;49.548;11.926;2022-07-25T09:28:42;29.50;98.70
21698;DHT22;11010;49.548;11.926;2022-07-25T09:31:11;29.40;98.70
21698;DHT22;11010;49.548;11.926;2022-07-25T09:33:52;29.70;97.90
21698;DHT22;11010;49.548;11.926;2022-07-25T09:36:25;30.00;98.20
21698;DHT22;11010;49.548;11.926;2022-07-25T09:39:00;29.60;97.80
21698;DHT22;11010;49.548;11.926;2022-07-25T09:41:34;30.00;98.20
21698;DHT22;11010;49.548;11.926;2022-07-25T09:44:03;30.10;97.40
21698;DHT22;11010;49.548;11.926;2022-07-25T09:46:31;30.30;97.10
21698;DHT22;11010;49.548;11.926;2022-07-25T09:49:00;30.40;97.10
21698;DHT22;11010;49.548;11.926;2022-07-25T09:51:27;30.80;96.70
21698;DHT22;11010;49.548;11.926;2022-07-25T09:53:55;30.50;96.50
21698;DHT22;11010;49.548;11.926;2022-07-25T09:56:22;30.70;96.80
21698;DHT22;11010;49.548;11.926;2022-07-25T09:58:49;31.10;96.80
21698;DHT22;11010;49.548;11.926;2022-07-25T10:01:23;31.10;96.20
21698;DHT22;11010;49.548;11.926;2022-07-25T10:09:17;31.40;95.10
21698;DHT22;11010;49.548;11.926;2022-07-25T10:12:06;31.30;94.90
21698;DHT22;11010;49.548;11.926;2022-07-25T10:14:37;31.30;94.10
21698;DHT22;11010;49.548;11.926;2022-07-25T10:17:05;31.30;93.50
21698;DHT22;11010;49.548;11.926;2022-07-25T10:19:46;31.50;93.40
21698;DHT22;11010;49.548;11.926;2022-07-25T10:22:20;31.40;93.60
21698;DHT22;11010;49.548;11.926;2022-07-25T10:25:13;31.10;93.10
21698;DHT22;11010;49.548;11.926;2022-07-25T10:27:43;31.20;93.10
21698;DHT22;11010;49.548;11.926;2022-07-25T10:30:22;31.40;93.00
21698;DHT22;11010;49.548;11.926;2022-07-25T10:32:55;31.70;92.80
21698;DHT22;11010;49.548;11.926;2022-07-25T10:35:25;31.70;92.90
21698;DHT22;11010;49.548;11.926;2022-07-25T10:37:55;31.50;93.00
21698;DHT22;11010;49.548;11.926;2022-07-25T10:43:18;32.50;92.80
21698;DHT22;11010;49.548;11.926;2022-07-25T10:45:51;32.10;92.20
21698;DHT22;11010;49.548;11.926;2022-07-25T10:51:02;32.40;92.10
21698;DHT22;11010;49.548;11.926;2022-07-25T10:56:17;32.40;91.50
21698;DHT22;11010;49.548;11.926;2022-07-25T11:03:49;32.40;90.10
21698;DHT22;11010;49.548;11.926;2022-07-25T11:06:34;32.60;89.70
21698;DHT22;11010;49.548;11.926;2022-07-25T11:09:12;32.50;90.30
21698;DHT22;11010;49.548;11.926;2022-07-25T11:11:49;32.90;90.70
21698;DHT22;11010;49.548;11.926;2022-07-25T11:16:50;33.20;90.20
21698;DHT22;11010;49.548;11.926;2022-07-25T11:19:28;33.30;89.50
21698;DHT22;11010;49.548;11.926;2022-07-25T11:21:58;33.70;88.90
21698;DHT22;11010;49.548;11.926;2022-07-25T11:24:35;33.50;89.70
21698;DHT22;11010;49.548;11.926;2022-07-25T11:27:03;33.20;90.20
21698;DHT22;11010;49.548;11.926;2022-07-25T11:29:38;33.30;90.20
21698;DHT22;11010;49.548;11.926;2022-07-25T11:32:08;33.10;90.60
21698;DHT22;11010;49.548;11.926;2022-07-25T11:34:38;33.10;90.60
21698;DHT22;11010;49.548;11.926;2022-07-25T11:37:08;33.30;90.40
21698;DHT22;11010;49.548;11.926;2022-07-25T11:39:38;33.30;90.70
21698;DHT22;11010;49.548;11.926;2022-07-25T11:42:39;33.00;91.00
21698;DHT22;11010;49.548;11.926;2022-07-25T11:45:30;33.40;91.00
21698;DHT22;11010;49.548;11.926;2022-07-25T11:48:07;33.80;90.70
21698;DHT22;11010;49.548;11.926;2022-07-25T11:50:38;33.70;91.00
21698;DHT22;11010;49.548;11.926;2022-07-25T11:53:11;33.40;90.50
21698;DHT22;11010;49.548;11.926;2022-07-25T11:55:41;33.60;90.60
21698;DHT22;11010;49.548;11.926;2022-07-25T11:58:10;33.40;90.50
21698;DHT22;11010;49.548;11.926;2022-07-25T12:00:45;33.50;90.60
21698;DHT22;11010;49.548;11.926;2022-07-25T12:03:14;34.00;90.70
21698;DHT22;11010;49.548;11.926;2022-07-25T12:05:47;34.50;90.30
21698;DHT22;11010;49.548;11.926;2022-07-25T12:08:19;34.20;90.40
21698;DHT22;11010;49.548;11.926;2022-07-25T12:10:48;34.20;90.30
21698;DHT22;11010;49.548;11.926;2022-07-25T12:13:26;34.70;90.20
21698;DHT22;11010;49.548;11.926;2022-07-25T12:15:58;34.50;90.40
21698;DHT22;11010;49.548;11.926;2022-07-25T12:18:27;34.90;90.10
21698;DHT22;11010;49.548;11.926;2022-07-25T12:20:54;34.90;90.30
21698;DHT22;11010;49.548;11.926;2022-07-25T12:23:22;34.80;90.00
21698;DHT22;11010;49.548;11.926;2022-07-25T12:25:49;35.20;88.10
21698;DHT22;11010;49.548;11.926;2022-07-25T12:28:17;34.60;89.70
21698;DHT22;11010;49.548;11.926;2022-07-25T12:30:45;34.50;90.20
21698;DHT22;11010;49.548;11.926;2022-07-25T12:33:18;34.70;90.00
21698;DHT22;11010;49.548;11.926;2022-07-25T12:35:45;34.40;90.20
21698;DHT22;11010;49.548;11.926;2022-07-25T12:38:13;34.30;90.20
21698;DHT22;11010;49.548;11.926;2022-07-25T12:40:40;34.60;89.20
21698;DHT22;11010;49.548;11.926;2022-07-25T12:43:07;34.90;89.70
21698;DHT22;11010;49.548;11.926;2022-07-25T12:45:35;35.10;89.40
21698;DHT22;11010;49.548;11.926;2022-07-25T12:48:02;35.40;88.10
21698;DHT22;11010;49.548;11.926;2022-07-25T12:50:30;36.10;87.00
21698;DHT22;11010;49.548;11.926;2022-07-25T12:52:57;35.20;85.70
21698;DHT22;11010;49.548;11.926;2022-07-25T12:55:24;35.10;85.90
21698;DHT22;11010;49.548;11.926;2022-07-25T12:57:52;35.10;86.20
21698;DHT22;11010;49.548;11.926;2022-07-25T13:00:21;35.40;86.40
21698;DHT22;11010;49.548;11.926;2022-07-25T13:02:49;35.00;87.50
21698;DHT22;11010;49.548;11.926;2022-07-25T13:05:18;35.20;87.20
21698;DHT22;11010;49.548;11.926;2022-07-25T13:07:46;35.00;88.50
21698;DHT22;11010;49.548;11.926;2022-07-25T13:10:15;35.10;87.50
21698;DHT22;11010;49.548;11.926;2022-07-25T13:12:42;34.80;86.90
21698;DHT22;11010;49.548;11.926;2022-07-25T13:15:10;34.90;86.70
21698;DHT22;11010;49.548;11.926;2022-07-25T13:17:37;35.10;86.40
21698;DHT22;11010;49.548;11.926;2022-07-25T13:20:07;35.50;85.50
21698;DHT22;11010;49.548;11.926;2022-07-25T13:22:34;35.60;85.70
21698;DHT22;11010;49.548;11.926;2022-07-25T13:25:01;35.50;86.10
21698;DHT22;11010;49.548;11.926;2022-07-25T13:27:29;35.20;85.90
21698;DHT22;11010;49.548;11.926;2022-07-25T13:29:56;35.40;85.30
21698;DHT22;11010;49.548;11.926;2022-07-25T13:32:23;35.40;85.60
21698;DHT22;11010;49.548;11.926;2022-07-25T13:34:52;36.20;84.00
21698;DHT22;11010;49.548;11.926;2022-07-25T13:37:20;35.90;85.00
21698;DHT22;11010;49.548;11.926;2022-07-25T13:39:47;36.10;85.20
21698;DHT22;11010;49.548;11.926;2022-07-25T13:42:15;36.10;84.20
21698;DHT22;11010;49.548;11.926;2022-07-25T13:44:42;35.90;83.40
21698;DHT22;11010;49.548;11.926;2022-07-25T13:47:09;35.90;83.60
21698;DHT22;11010;49.548;11.926;2022-07-25T13:49:37;35.40;83.70
21698;DHT22;11010;49.548;11.926;2022-07-25T13:52:04;35.40;84.10
21698;DHT22;11010;49.548;11.926;2022-07-25T13:54:32;36.00;83.50
21698;DHT22;11010;49.548;11.926;2022-07-25T13:57:01;35.80;83.20
21698;DHT22;11010;49.548;11.926;2022-07-25T13:59:29;35.60;83.60
21698;DHT22;11010;49.548;11.926;2022-07-25T14:01:56;35.60;83.60
21698;DHT22;11010;49.548;11.926;2022-07-25T14:04:24;35.80;84.30
21698;DHT22;11010;49.548;11.926;2022-07-25T14:06:51;35.90;83.20
21698;DHT22;11010;49.548;11.926;2022-07-25T14:09:19;36.00;82.90
21698;DHT22;11010;49.548;11.926;2022-07-25T14:11:47;35.90;82.10
21698;DHT22;11010;49.548;11.926;2022-07-25T14:14:15;36.60;81.90
21698;DHT22;11010;49.548;11.926;2022-07-25T14:16:42;36.60;80.90
21698;DHT22;11010;49.548;11.926;2022-07-25T14:19:10;36.60;79.70
21698;DHT22;11010;49.548;11.926;2022-07-25T14:21:37;36.30;80.20
21698;DHT22;11010;49.548;11.926;2022-07-25T14:24:04;35.90;80.40
21698;DHT22;11010;49.548;11.926;2022-07-25T14:26:33;35.80;79.70
21698;DHT22;11010;49.548;11.926;2022-07-25T14:29:01;35.80;79.60
21698;DHT22;11010;49.548;11.926;2022-07-25T14:31:28;36.40;78.70
21698;DHT22;11010;49.548;11.926;2022-07-25T14:33:55;35.80;79.00
21698;DHT22;11010;49.548;11.926;2022-07-25T14:36:22;36.00;79.20
21698;DHT22;11010;49.548;11.926;2022-07-25T14:38:50;36.10;78.00
21698;DHT22;11010;49.548;11.926;2022-07-25T14:41:18;35.40;77.70
21698;DHT22;11010;49.548;11.926;2022-07-25T14:43:45;35.40;78.60
21698;DHT22;11010;49.548;11.926;2022-07-25T14:46:13;36.00;78.00
21698;DHT22;11010;49.548;11.926;2022-07-25T14:48:40;36.30;78.00
21698;DHT22;11010;49.548;11.926;2022-07-25T14:51:07;35.70;77.70
21698;DHT22;11010;49.548;11.926;2022-07-25T14:53:35;36.10;78.20
21698;DHT22;11010;49.548;11.926;2022-07-25T14:56:03;36.50;78.00
21698;DHT22;11010;49.548;11.926;2022-07-25T14:58:31;36.30;78.10
21698;DHT22;11010;49.548;11.926;2022-07-25T15:00:59;36.20;77.90
21698;DHT22;11010;49.548;11.926;2022-07-25T15:03:27;36.30;77.90
21698;DHT22;11010;49.548;11.926;2022-07-25T15:05:54;37.00;77.90
21698;DHT22;11010;49.548;11.926;2022-07-25T15:08:21;35.80;79.10
21698;DHT22;11010;49.548;11.926;2022-07-25T15:10:49;35.50;79.20
21698;DHT22;11010;49.548;11.926;2022-07-25T15:13:16;35.90;79.70
21698;DHT22;11010;49.548;11.926;2022-07-25T15:15:59;35.80;79.70
21698;DHT22;11010;49.548;11.926;2022-07-25T15:18:28;35.70;80.10
21698;DHT22;11010;49.548;11.926;2022-07-25T15:20:55;36.10;80.00
21698;DHT22;11010;49.548;11.926;2022-07-25T15:23:23;36.50;78.20
21698;DHT22;11010;49.548;11.926;2022-07-25T15:25:53;36.00;77.20
21698;DHT22;11010;49.548;11.926;2022-07-25T15:28:31;36.10;75.40
21698;DHT22;11010;49.548;11.926;2022-07-25T15:30:59;36.00;75.00
21698;DHT22;11010;49.548;11.926;2022-07-25T15:33:27;36.40;74.50
21698;DHT22;11010;49.548;11.926;2022-07-25T15:35:54;36.00;71.70
21698;DHT22;11010;49.548;11.926;2022-07-25T15:38:22;35.70;71.40
21698;DHT22;11010;49.548;11.926;2022-07-25T15:40:49;36.00;71.30
21698;DHT22;11010;49.548;11.926;2022-07-25T15:43:16;35.90;72.00
21698;DHT22;11010;49.548;11.926;2022-07-25T15:45:44;35.90;71.40
21698;DHT22;11010;49.548;11.926;2022-07-25T15:48:13;36.00;72.60